Time;durP1;ratioP1;P1;durP2;ratioP2;P2;SDS_P1;SDS_P2;PMS_P1;PMS_P2;Temp;Humidity;BMP_temperature;BMP_pressure;BME280_temperature;BME280_humidity;BME280_pressure;Samples;Min_cycle;Max_cycle;Signal;HPM_P1;HPM_P2
2023/10/12 00:00:42;;;;;;;5.50;0.70;;;14.60;99.90;;;;;;5102012;28;20131;-69
2023/10/12 00:03:12;;;;;;;6.88;1.15;;;14.50;99.90;;;;;;5099677;28;20086;-69
2023/10/12 00:05:38;;;;;;;6.35;0.80;;;14.50;99.90;;;;;;5099648;28;20123;-69
2023/10/12 00:08:26;;;;;;;6.63;1.17;;;14.40;99.90;;;;;;5099752;28;20051;-69
2023/10/12 00:10:54;;;;;;;3.80;0.60;;;14.40;99.90;;;;;;5102932;28;20048;-69
2023/10/12 00:13:20;;;;;;;4.43;0.75;;;14.40;99.90;;;;;;5111363;27;20164;-69
2023/10/12 00:15:47;;;;;;;7.60;0.90;;;14.40;99.90;;;;;;5106584;27;20477;-69
2023/10/12 00:18:16;;;;;;;5.30;0.90;;;14.30;99.90;;;;;;5106273;27;20040;-69
2023/10/12 00:20:50;;;;;;;7.10;0.82;;;14.30;99.90;;;;;;5106730;27;20035;-69
2023/10/12 00:23:16;;;;;;;3.50;0.85;;;14.30;99.90;;;;;;5108609;27;20040;-69
2023/10/12 00:25:46;;;;;;;4.50;0.93;;;14.30;99.90;;;;;;5107576;27;20044;-69
2023/10/12 00:28:19;;;;;;;9.10;1.02;;;14.30;99.90;;;;;;5106524;27;21632;-69
2023/10/12 00:31:04;;;;;;;7.15;0.88;;;14.30;99.90;;;;;;5103320;27;20050;-69
2023/10/12 00:33:29;;;;;;;4.55;0.98;;;14.30;99.90;;;;;;5104425;27;20068;-69
2023/10/12 00:36:19;;;;;;;5.00;0.90;;;14.30;99.90;;;;;;5106702;28;20089;-69
2023/10/12 00:38:45;;;;;;;4.40;0.73;;;14.20;99.90;;;;;;5104731;27;20116;-69
2023/10/12 00:41:14;;;;;;;8.68;1.13;;;14.20;99.90;;;;;;5103744;27;20042;-69
2023/10/12 00:43:52;;;;;;;6.70;1.23;;;14.30;99.90;;;;;;5103103;27;20163;-69
2023/10/12 00:46:32;;;;;;;5.88;1.58;;;14.30;99.90;;;;;;5109502;27;20039;-70
2023/10/12 00:51:51;;;;;;;5.43;1.25;;;14.20;99.90;;;;;;5106908;27;20052;-69
2023/10/12 00:57:05;;;;;;;5.60;0.90;;;14.30;99.90;;;;;;5106575;27;20378;-69
2023/10/12 00:59:32;;;;;;;7.25;1.10;;;14.20;99.90;;;;;;5105776;28;20129;-69
2023/10/12 01:02:02;;;;;;;5.38;1.00;;;14.20;99.90;;;;;;5101351;28;20473;-69
2023/10/12 01:04:32;;;;;;;7.88;1.63;;;14.10;99.90;;;;;;5134216;27;20119;-69
2023/10/12 01:06:59;;;;;;;7.82;1.15;;;14.10;99.90;;;;;;5105436;27;20482;-69
2023/10/12 01:09:28;;;;;;;6.65;1.05;;;14.10;99.90;;;;;;5105864;27;20047;-70
2023/10/12 01:12:00;;;;;;;3.95;1.02;;;14.10;99.90;;;;;;5106277;28;20043;-70
2023/10/12 01:14:28;;;;;;;7.70;1.00;;;14.20;99.90;;;;;;5109673;27;20088;-69
2023/10/12 01:17:04;;;;;;;2.17;0.60;;;14.10;99.90;;;;;;5137173;27;20040;-69
2023/10/12 01:19:44;;;;;;;6.70;1.33;;;14.20;99.90;;;;;;5103670;27;20044;-70
2023/10/12 01:22:13;;;;;;;6.40;0.80;;;14.10;99.90;;;;;;5109066;27;21890;-69
2023/10/12 01:27:18;;;;;;;8.40;1.50;;;14.10;99.90;;;;;;5138382;27;20039;-70
2023/10/12 01:29:45;;;;;;;6.75;1.00;;;14.00;99.90;;;;;;5104900;27;20036;-69
2023/10/12 01:34:37;;;;;;;4.43;0.98;;;14.00;99.90;;;;;;5120042;27;20413;-69
2023/10/12 01:37:11;;;;;;;6.07;1.00;;;14.10;99.90;;;;;;5102597;27;20044;-69
2023/10/12 01:39:39;;;;;;;6.85;1.60;;;14.00;99.90;;;;;;5104711;28;20086;-69
2023/10/12 01:42:06;;;;;;;6.90;1.70;;;14.10;99.90;;;;;;5105614;28;20107;-69
2023/10/12 01:44:32;;;;;;;6.60;1.75;;;14.00;99.90;;;;;;5103712;27;20046;-69
2023/10/12 01:46:58;;;;;;;6.88;1.35;;;14.00;99.90;;;;;;5104949;27;20043;-69
2023/10/12 01:49:24;;;;;;;5.18;0.88;;;14.00;99.90;;;;;;5100865;28;20039;-69
2023/10/12 01:51:50;;;;;;;3.83;1.10;;;14.00;99.90;;;;;;5108968;27;20039;-69
2023/10/12 01:54:22;;;;;;;7.30;1.33;;;14.00;99.90;;;;;;5103088;27;20048;-69
2023/10/12 01:56:55;;;;;;;7.22;1.20;;;14.00;99.90;;;;;;5105247;27;20501;-69
2023/10/12 01:59:22;;;;;;;6.25;1.42;;;13.90;99.90;;;;;;5104462;28;20401;-69
2023/10/12 02:02:05;;;;;;;3.70;0.80;;;14.00;99.90;;;;;;5121747;27;20055;-69
2023/10/12 02:04:31;;;;;;;6.38;1.15;;;13.90;99.90;;;;;;5106370;27;20401;-69
2023/10/12 02:06:57;;;;;;;5.38;1.02;;;13.90;99.90;;;;;;5101079;28;20031;-69
2023/10/12 02:09:23;;;;;;;6.15;1.30;;;13.90;99.90;;;;;;5102742;27;20118;-69
2023/10/12 02:11:54;;;;;;;5.30;1.33;;;13.80;99.90;;;;;;5104246;28;20035;-69
2023/10/12 02:14:32;;;;;;;4.82;0.95;;;13.90;99.90;;;;;;5106111;27;20088;-69
2023/10/12 02:17:02;;;;;;;7.38;1.05;;;13.90;99.90;;;;;;5106173;27;20028;-69
2023/10/12 02:19:43;;;;;;;6.70;1.25;;;13.90;99.90;;;;;;5106390;27;20043;-69
2023/10/12 02:22:20;;;;;;;2.90;1.05;;;13.80;99.90;;;;;;5135677;27;20425;-69
2023/10/12 02:25:17;;;;;;;5.28;1.00;;;13.90;99.90;;;;;;5104369;27;20055;-69
2023/10/12 02:27:42;;;;;;;7.85;1.25;;;13.90;99.90;;;;;;5101569;28;20044;-69
2023/10/12 02:30:13;;;;;;;6.20;1.10;;;13.90;99.90;;;;;;5090285;28;20040;-69
2023/10/12 02:32:51;;;;;;;4.70;1.17;;;13.80;99.90;;;;;;5100674;28;20082;-69
2023/10/12 02:35:19;;;;;;;5.97;1.23;;;13.80;99.90;;;;;;5105425;28;20080;-69
2023/10/12 02:37:47;;;;;;;5.50;1.27;;;13.80;99.90;;;;;;5107781;28;20043;-69
2023/10/12 02:40:12;;;;;;;4.88;1.27;;;13.80;99.90;;;;;;5104103;28;20454;-69
2023/10/12 02:42:38;;;;;;;5.25;0.80;;;13.80;99.90;;;;;;5106988;28;20066;-69
2023/10/12 02:45:27;;;;;;;6.63;1.20;;;13.80;99.90;;;;;;5105495;28;20374;-69
2023/10/12 02:47:52;;;;;;;6.07;1.00;;;13.80;99.90;;;;;;5106777;27;20374;-69
2023/10/12 02:50:26;;;;;;;7.00;1.00;;;13.80;99.90;;;;;;5106293;27;20040;-69
2023/10/12 02:52:52;;;;;;;8.05;1.30;;;13.80;99.90;;;;;;5104470;28;20043;-69
2023/10/12 02:57:59;;;;;;;7.15;1.33;;;13.70;99.90;;;;;;5105397;28;20070;-69
2023/10/12 03:00:39;;;;;;;5.32;1.40;;;13.80;99.90;;;;;;5101630;28;20044;-69
2023/10/12 03:03:21;;;;;;;7.10;1.05;;;13.70;99.90;;;;;;5099710;28;20039;-69
2023/10/12 03:05:47;;;;;;;3.50;0.90;;;13.70;99.90;;;;;;5102717;28;20096;-69
2023/10/12 03:08:14;;;;;;;6.57;1.50;;;13.70;99.90;;;;;;5099776;28;20047;-69
2023/10/12 03:11:00;;;;;;;6.55;0.98;;;13.70;99.90;;;;;;5102716;28;20093;-69
2023/10/12 03:13:34;;;;;;;6.03;2.08;;;13.70;99.90;;;;;;5136184;27;20093;-69
2023/10/12 03:18:36;;;;;;;7.28;1.02;;;13.70;99.90;;;;;;5102448;28;20043;-69
2023/10/12 03:21:04;;;;;;;5.38;1.35;;;13.60;99.90;;;;;;5104395;28;20043;-69
2023/10/12 03:23:33;;;;;;;5.22;1.15;;;13.60;99.90;;;;;;5104482;28;20566;-69
2023/10/12 03:26:04;;;;;;;9.85;1.63;;;13.60;99.90;;;;;;5104430;28;20125;-69
2023/10/12 03:28:30;;;;;;;6.35;1.00;;;13.60;99.90;;;;;;5105670;28;20410;-69
2023/10/12 03:31:20;;;;;;;8.18;1.17;;;13.60;99.90;;;;;;5102903;28;20096;-69
2023/10/12 03:34:16;;;;;;;4.85;1.30;;;13.60;99.90;;;;;;5103416;28;20664;-69
2023/10/12 03:36:36;;;;;;;5.10;1.15;;;13.60;99.90;;;;;;5102226;28;20188;-69
2023/10/12 03:44:26;;;;;;;8.13;1.95;;;13.50;99.90;;;;;;5103245;28;20043;-69
2023/10/12 03:47:00;;;;;;;6.63;1.48;;;13.50;99.90;;;;;;5103038;28;20047;-69
2023/10/12 03:49:32;;;;;;;5.55;1.05;;;13.50;99.90;;;;;;5104201;27;20051;-69
2023/10/12 03:52:12;;;;;;;4.78;1.30;;;13.50;99.90;;;;;;5108249;27;20091;-69
2023/10/12 03:54:39;;;;;;;7.85;1.10;;;13.50;99.90;;;;;;5107897;27;20044;-68
2023/10/12 03:57:19;;;;;;;6.70;1.50;;;13.50;99.90;;;;;;5108478;27;20043;-68
2023/10/12 04:02:41;;;;;;;5.30;1.15;;;13.50;99.90;;;;;;5105396;27;20032;-69
2023/10/12 04:13:54;;;;;;;11.50;2.65;;;13.50;99.90;;;;;;5111502;27;20043;-69
2023/10/12 04:18:40;;;;;;;4.13;0.90;;;13.50;99.90;;;;;;5106538;27;20531;-68
2023/10/12 04:21:06;;;;;;;7.97;1.10;;;13.50;99.90;;;;;;5107242;27;20118;-68
2023/10/12 04:23:59;;;;;;;7.15;1.58;;;13.50;99.90;;;;;;5106283;27;20509;-69
2023/10/12 04:26:37;;;;;;;7.20;1.67;;;13.50;99.90;;;;;;5103355;27;20043;-69
2023/10/12 04:29:21;;;;;;;4.82;0.93;;;13.50;99.90;;;;;;5105381;28;20043;-68
2023/10/12 04:31:51;;;;;;;6.72;1.30;;;13.60;99.90;;;;;;5101786;28;20057;-69
2023/10/12 04:34:19;;;;;;;4.78;1.00;;;13.50;99.90;;;;;;5137093;27;20051;-69
2023/10/12 04:36:48;;;;;;;5.18;1.00;;;13.50;99.90;;;;;;5105224;28;20049;-69
2023/10/12 04:39:16;;;;;;;3.95;1.45;;;13.50;99.90;;;;;;5136099;27;20353;-69
2023/10/12 04:57:30;;;;;;;8.32;1.73;;;13.50;99.90;;;;;;5106445;27;20048;-68
2023/10/12 05:05:54;;;;;;;6.47;1.60;;;13.50;99.90;;;;;;5139586;27;20051;-69
2023/10/12 05:08:03;;;;;;;10.55;2.22;;;13.50;99.90;;;;;;5105117;28;20051;-69
2023/10/12 05:10:46;;;;;;;4.80;1.15;;;13.50;99.90;;;;;;5104902;28;20047;-68
2023/10/12 05:13:12;;;;;;;6.63;1.23;;;13.40;99.90;;;;;;5106947;27;20378;-68
2023/10/12 05:15:54;;;;;;;8.70;1.70;;;13.50;99.90;;;;;;5104351;28;20035;-68
2023/10/12 05:18:25;;;;;;;5.90;1.42;;;13.40;99.90;;;;;;5135495;27;20043;-68
2023/10/12 05:20:52;;;;;;;5.85;1.05;;;13.40;99.90;;;;;;5099908;28;20046;-68
2023/10/12 05:23:18;;;;;;;3.70;1.00;;;13.40;99.90;;;;;;5105760;27;20035;-68
2023/10/12 05:28:37;;;;;;;4.95;0.90;;;13.50;99.90;;;;;;5105992;27;20468;-68
2023/10/12 05:36:13;;;;;;;9.77;1.67;;;13.40;99.90;;;;;;5104103;28;20055;-69
2023/10/12 05:38:40;;;;;;;8.80;1.77;;;13.40;99.90;;;;;;5102321;27;20036;-68
2023/10/12 05:41:09;;;;;;;9.68;1.35;;;13.40;99.90;;;;;;5107563;27;20400;-68
2023/10/12 05:43:40;;;;;;;9.82;1.50;;;13.40;99.90;;;;;;5101405;27;20138;-68
2023/10/12 05:46:13;;;;;;;9.35;1.40;;;13.40;99.90;;;;;;5104603;27;20044;-68
2023/10/12 05:48:45;;;;;;;6.65;2.22;;;13.40;99.90;;;;;;5134021;27;20039;-69
2023/10/12 05:51:21;;;;;;;10.18;1.55;;;13.30;99.90;;;;;;5103585;28;20036;-69
2023/10/12 05:54:01;;;;;;;5.28;0.95;;;13.40;99.90;;;;;;5102918;28;20054;-68
2023/10/12 05:56:27;;;;;;;11.02;2.45;;;13.40;99.90;;;;;;5105522;28;20028;-69
2023/10/12 05:58:53;;;;;;;9.35;2.05;;;13.30;99.90;;;;;;5102845;28;20750;-69
2023/10/12 06:01:35;;;;;;;8.52;1.02;;;13.30;99.90;;;;;;5100140;27;20044;-69
2023/10/12 06:04:08;;;;;;;5.47;1.00;;;13.30;99.90;;;;;;5100947;28;20048;-68
2023/10/12 06:06:43;;;;;;;10.70;1.40;;;13.40;99.90;;;;;;5102337;28;20035;-69
2023/10/12 06:09:14;;;;;;;8.23;1.43;;;13.40;99.90;;;;;;5101892;27;20039;-69
2023/10/12 06:11:44;;;;;;;4.85;1.17;;;13.20;99.90;;;;;;5089388;28;20082;-68
2023/10/12 06:14:12;;;;;;;5.07;1.02;;;13.10;99.90;;;;;;5132741;27;20047;-68
2023/10/12 06:16:40;;;;;;;5.32;1.08;;;13.20;99.90;;;;;;5103001;27;20039;-69
2023/10/12 06:19:23;;;;;;;5.85;1.05;;;13.10;99.90;;;;;;5101647;27;20042;-69
2023/10/12 06:21:52;;;;;;;7.57;1.70;;;13.10;99.90;;;;;;5136585;27;20501;-68
2023/10/12 06:24:27;;;;;;;7.45;1.50;;;13.10;99.90;;;;;;5099857;27;20040;-68
2023/10/12 06:26:53;;;;;;;8.55;1.23;;;13.20;99.90;;;;;;5104037;27;20042;-68
2023/10/12 06:29:25;;;;;;;4.32;0.80;;;13.10;99.90;;;;;;5130180;27;20040;-69
2023/10/12 06:31:52;;;;;;;11.85;2.05;;;13.10;99.90;;;;;;5101690;28;20042;-69
2023/10/12 06:34:19;;;;;;;5.32;1.40;;;13.10;99.90;;;;;;5101694;28;20500;-69
2023/10/12 06:36:45;;;;;;;5.68;1.30;;;13.10;99.90;;;;;;5097468;28;20067;-69
2023/10/12 06:44:25;;;;;;;7.22;1.63;;;13.10;99.90;;;;;;5133544;27;20051;-69
2023/10/12 06:46:57;;;;;;;6.93;1.30;;;13.00;99.90;;;;;;5100739;28;20051;-69
2023/10/12 06:49:23;;;;;;;5.03;1.38;;;13.00;99.90;;;;;;5131294;27;20039;-68
2023/10/12 06:52:02;;;;;;;11.65;1.80;;;12.90;99.90;;;;;;5102109;28;20134;-68
2023/10/12 07:02:30;;;;;;;7.75;1.52;;;13.10;99.90;;;;;;5096401;28;20048;-69
2023/10/12 07:05:01;;;;;;;6.35;2.00;;;13.10;99.90;;;;;;5105764;28;20369;-69
2023/10/12 07:10:52;;;;;;;6.00;1.25;;;13.10;99.90;;;;;;5101639;28;20043;-68
2023/10/12 07:12:49;;;;;;;4.13;1.50;;;13.10;99.90;;;;;;5119263;27;20052;-68
2023/10/12 07:15:20;;;;;;;5.55;1.27;;;13.20;99.90;;;;;;5102899;28;20039;-68
2023/10/12 07:17:49;;;;;;;8.25;1.42;;;13.20;99.90;;;;;;5101146;28;20055;-68
2023/10/12 07:20:27;;;;;;;3.22;0.90;;;13.30;99.90;;;;;;5099293;27;20425;-68
2023/10/12 07:22:52;;;;;;;12.52;1.55;;;13.40;99.90;;;;;;5109048;27;20054;-68
2023/10/12 07:25:22;;;;;;;6.78;1.75;;;13.50;99.90;;;;;;5107286;27;20481;-68
2023/10/12 07:27:56;;;;;;;7.50;1.23;;;13.70;99.90;;;;;;5105333;27;20035;-69
2023/10/12 07:30:30;;;;;;;7.68;1.65;;;13.70;99.90;;;;;;5103688;27;20039;-68
2023/10/12 07:33:04;;;;;;;9.10;2.13;;;13.80;99.90;;;;;;5099561;27;20158;-68
2023/10/12 07:35:38;;;;;;;12.80;1.63;;;13.90;99.90;;;;;;5105409;27;20043;-69
2023/10/12 07:38:28;;;;;;;7.05;1.60;;;14.00;99.90;;;;;;5103409;27;20448;-69
2023/10/12 07:41:00;;;;;;;5.55;1.35;;;14.00;99.90;;;;;;5134563;27;20043;-69
2023/10/12 07:43:31;;;;;;;7.03;1.73;;;14.10;99.90;;;;;;5103108;27;20048;-68
2023/10/12 07:49:21;;;;;;;9.52;1.80;;;14.20;99.90;;;;;;5088654;27;20047;-69
2023/10/12 07:57:36;;;;;;;8.48;1.60;;;14.30;99.90;;;;;;5049327;28;20049;-69
2023/10/12 08:13:16;;;;;;;6.18;2.15;;;14.60;99.90;;;;;;5103259;28;20040;-69
2023/10/12 08:15:55;;;;;;;5.45;1.45;;;14.60;99.90;;;;;;5106687;27;20116;-69
2023/10/12 08:24:09;;;;;;;10.57;1.60;;;14.60;99.90;;;;;;5134735;27;20035;-68
2023/10/12 08:31:45;;;;;;;11.70;1.05;;;14.60;99.90;;;;;;5105181;27;20052;-68
2023/10/12 08:34:41;;;;;;;6.57;1.00;;;14.70;99.90;;;;;;5102214;28;20040;-68
2023/10/12 08:39:37;;;;;;;8.65;1.08;;;14.70;99.90;;;;;;5099138;28;20079;-69
2023/10/12 08:44:58;;;;;;;5.63;0.95;;;14.70;99.90;;;;;;5098854;27;20044;-68
2023/10/12 08:47:31;;;;;;;5.35;0.90;;;14.70;99.90;;;;;;5098175;28;20044;-68
2023/10/12 08:50:47;;;;;;;10.70;1.38;;;14.90;99.90;;;;;;5097536;28;20504;-68
2023/10/12 08:53:03;;;;;;;6.32;0.90;;;14.80;99.90;;;;;;5099311;27;20048;-68
2023/10/12 08:55:31;;;;;;;7.03;0.95;;;14.70;99.90;;;;;;5101928;28;20449;-68
2023/10/12 08:58:16;;;;;;;8.10;1.63;;;14.80;99.90;;;;;;5105233;27;20123;-68
2023/10/12 09:00:44;;;;;;;4.60;1.08;;;14.70;99.90;;;;;;5134321;27;20055;-68
2023/10/12 09:05:46;;;;;;;11.20;1.00;;;14.80;99.90;;;;;;5105537;28;20043;-68
2023/10/12 09:10:51;;;;;;;7.93;0.93;;;14.90;99.90;;;;;;5100897;28;20058;-68
2023/10/12 09:13:20;;;;;;;7.40;0.93;;;14.90;99.90;;;;;;5107616;27;20153;-67
2023/10/12 09:15:47;;;;;;;9.70;1.25;;;15.00;99.90;;;;;;5103422;27;20036;-67
2023/10/12 09:18:17;;;;;;;7.35;1.25;;;15.00;99.90;;;;;;5106911;27;20378;-68
2023/10/12 09:36:43;;;;;;;5.95;1.15;;;15.40;99.90;;;;;;5103489;28;20405;-67
2023/10/12 09:39:14;;;;;;;6.78;0.90;;;15.50;99.90;;;;;;5101277;27;20358;-67
2023/10/12 09:41:42;;;;;;;4.32;0.88;;;15.50;99.90;;;;;;5103530;27;20039;-67
2023/10/12 09:44:11;;;;;;;11.50;1.17;;;15.70;99.90;;;;;;5103314;27;20395;-67
2023/10/12 09:46:46;;;;;;;9.18;1.20;;;15.60;99.90;;;;;;5103247;28;20051;-68
2023/10/12 09:49:21;;;;;;;5.40;0.70;;;15.80;99.90;;;;;;5102370;28;20394;-68
2023/10/12 09:51:51;;;;;;;7.57;0.98;;;15.70;99.90;;;;;;5104933;27;20039;-68
2023/10/12 09:54:33;;;;;;;9.15;1.02;;;15.80;99.90;;;;;;5103528;28;20126;-67
2023/10/12 09:57:16;;;;;;;4.63;0.95;;;15.90;99.90;;;;;;5106000;28;20059;-67
2023/10/12 09:59:51;;;;;;;5.95;1.00;;;15.90;99.90;;;;;;5102903;28;20039;-67
2023/10/12 10:02:31;;;;;;;;;;;16.00;99.90;;;;;;5107552;27;20416;-67
2023/10/12 10:05:05;;;;;;;4.82;0.70;;;16.00;99.90;;;;;;5132990;27;19924;-67
2023/10/12 10:07:36;;;;;;;8.40;0.93;;;16.00;99.90;;;;;;5101747;28;20044;-67
2023/10/12 10:10:16;;;;;;;5.38;1.33;;;15.90;99.90;;;;;;5099900;28;20111;-67
2023/10/12 10:12:42;;;;;;;6.22;1.40;;;15.80;99.90;;;;;;5106121;27;20051;-67
2023/10/12 10:15:20;;;;;;;6.43;0.77;;;15.80;99.90;;;;;;5104023;27;20043;-67
2023/10/12 10:17:52;;;;;;;6.60;0.82;;;15.80;99.90;;;;;;5102589;27;20039;-67
2023/10/12 10:22:57;;;;;;;12.55;1.60;;;15.70;99.90;;;;;;5095885;28;20059;-67
2023/10/12 10:25:51;;;;;;;3.30;0.95;;;15.60;99.90;;;;;;5113620;27;20819;-67
2023/10/12 10:28:25;;;;;;;5.18;1.10;;;15.80;99.90;;;;;;5098275;27;20032;-67
2023/10/12 10:30:52;;;;;;;6.32;0.68;;;15.60;99.90;;;;;;5098692;27;20509;-67
2023/10/12 10:33:23;;;;;;;6.80;0.95;;;15.60;99.90;;;;;;5129859;27;20055;-67
2023/10/12 10:35:57;;;;;;;8.55;0.82;;;15.50;99.90;;;;;;5096653;28;20050;-67
2023/10/12 10:38:34;;;;;;;3.20;0.60;;;15.50;99.90;;;;;;5101978;28;20048;-67
2023/10/12 10:41:22;;;;;;;5.15;0.85;;;15.50;99.90;;;;;;5102294;27;20046;-67
2023/10/12 10:43:48;;;;;;;3.47;0.60;;;15.60;99.90;;;;;;5102197;27;20039;-67
2023/10/12 10:46:17;;;;;;;6.00;0.88;;;15.60;99.90;;;;;;5100642;27;20067;-67
2023/10/12 10:48:50;;;;;;;5.40;1.20;;;15.50;99.90;;;;;;5099502;28;20052;-67
2023/10/12 10:51:24;;;;;;;8.88;1.23;;;15.50;99.90;;;;;;5097725;27;20127;-67
2023/10/12 10:53:54;;;;;;;5.03;0.80;;;15.50;99.90;;;;;;5099569;28;20048;-67
2023/10/12 10:56:38;;;;;;;6.57;1.23;;;15.50;99.90;;;;;;5101127;28;20035;-67
2023/10/12 10:59:12;;;;;;;7.50;1.15;;;15.50;99.90;;;;;;5101276;28;20046;-67
2023/10/12 11:01:46;;;;;;;5.10;0.70;;;15.50;99.90;;;;;;5101165;28;20044;-67
2023/10/12 11:04:26;;;;;;;8.20;0.93;;;15.40;99.90;;;;;;5084952;28;20066;-67
2023/10/12 11:06:53;;;;;;;7.15;0.88;;;15.50;99.90;;;;;;5099491;28;20051;-67
2023/10/12 11:09:29;;;;;;;7.75;1.20;;;15.50;99.90;;;;;;5099161;28;20078;-67
2023/10/12 11:12:14;;;;;;;4.07;0.80;;;15.50;99.90;;;;;;5099950;28;20401;-67
2023/10/12 11:14:43;;;;;;;5.75;0.95;;;15.50;99.90;;;;;;5101098;28;20040;-67
2023/10/12 11:17:09;;;;;;;6.53;0.95;;;15.50;99.90;;;;;;5098198;28;20042;-67
2023/10/12 11:19:36;;;;;;;4.63;1.05;;;15.60;99.90;;;;;;5101766;28;20031;-67
2023/10/12 11:22:02;;;;;;;5.38;0.70;;;15.70;99.90;;;;;;5102914;28;20040;-67
2023/10/12 11:24:27;;;;;;;10.57;1.50;;;15.50;99.90;;;;;;5102763;28;20080;-67
2023/10/12 11:26:57;;;;;;;6.95;1.15;;;15.60;99.90;;;;;;5101362;28;20044;-67
2023/10/12 11:29:24;;;;;;;8.07;0.95;;;15.50;99.90;;;;;;5101004;28;20521;-67
2023/10/12 11:32:09;;;;;;;9.57;2.08;;;15.60;99.90;;;;;;5100656;28;20138;-67
2023/10/12 11:34:45;;;;;;;5.22;0.75;;;15.50;99.90;;;;;;5099299;28;20058;-67
2023/10/12 11:37:14;;;;;;;6.75;0.80;;;15.60;99.90;;;;;;5133727;27;20062;-67
2023/10/12 11:39:43;;;;;;;8.35;1.10;;;15.50;99.90;;;;;;5096414;28;20140;-67
2023/10/12 11:42:12;;;;;;;3.97;0.70;;;15.60;99.90;;;;;;5098511;28;20952;-67
2023/10/12 11:44:42;;;;;;;5.72;0.98;;;15.60;99.90;;;;;;5098023;28;20032;-67
2023/10/12 11:47:13;;;;;;;5.45;1.30;;;15.50;99.90;;;;;;5101383;28;20036;-67
2023/10/12 11:49:55;;;;;;;7.53;1.25;;;15.50;99.90;;;;;;5109790;27;20051;-67
2023/10/12 11:52:32;;;;;;;8.25;0.65;;;15.50;99.90;;;;;;5093278;28;20482;-67
2023/10/12 11:55:18;;;;;;;4.88;0.90;;;15.60;99.90;;;;;;5100111;28;20039;-67
2023/10/12 11:57:49;;;;;;;4.03;0.98;;;15.60;99.90;;;;;;5127254;27;20128;-67
2023/10/12 12:00:21;;;;;;;5.05;0.57;;;15.60;99.90;;;;;;5094999;28;20040;-67
2023/10/12 12:02:53;;;;;;;4.93;1.15;;;15.50;99.90;;;;;;5100605;28;20051;-67
2023/10/12 12:05:22;;;;;;;9.73;1.20;;;15.60;99.90;;;;;;5098278;28;20031;-68
2023/10/12 12:07:51;;;;;;;5.28;1.00;;;15.60;99.90;;;;;;5099670;28;20124;-67
2023/10/12 12:10:25;;;;;;;6.75;0.77;;;15.60;99.90;;;;;;5102074;27;20162;-67
2023/10/12 12:12:52;;;;;;;6.22;0.70;;;15.50;99.90;;;;;;5104412;28;20485;-67
2023/10/12 12:15:24;;;;;;;5.65;1.17;;;15.50;99.90;;;;;;5104527;27;20035;-67
2023/10/12 12:17:51;;;;;;;6.43;1.08;;;15.60;99.90;;;;;;5133596;27;20044;-67
2023/10/12 12:20:21;;;;;;;14.85;2.67;;;15.50;99.90;;;;;;5101808;27;20043;-67
2023/10/12 12:23:10;;;;;;;7.72;0.80;;;15.50;99.90;;;;;;5104847;27;20416;-67
2023/10/12 12:25:39;;;;;;;7.13;0.65;;;15.50;99.90;;;;;;5099915;27;20044;-67
2023/10/12 12:28:07;;;;;;;8.10;0.98;;;15.50;99.90;;;;;;5100894;27;20055;-67
2023/10/12 12:30:39;;;;;;;7.43;1.00;;;15.50;99.90;;;;;;5099698;27;20044;-67
2023/10/12 12:33:15;;;;;;;4.88;0.98;;;15.50;99.90;;;;;;5134419;27;20462;-67
2023/10/12 12:35:45;;;;;;;5.45;0.70;;;15.50;99.90;;;;;;5105008;27;20035;-67
2023/10/12 12:38:22;;;;;;;6.75;1.60;;;15.40;99.90;;;;;;5105982;27;20035;-67
2023/10/12 12:40:49;;;;;;;8.35;1.35;;;15.30;99.90;;;;;;5103855;27;20051;-67
2023/10/12 12:43:14;;;;;;;6.35;1.15;;;15.40;99.90;;;;;;5102195;28;20047;-67
2023/10/12 12:45:41;;;;;;;7.63;1.67;;;15.30;99.90;;;;;;5103440;28;20444;-67
2023/10/12 12:48:07;;;;;;;5.97;1.13;;;15.30;99.90;;;;;;5106554;27;20042;-67
2023/10/12 12:50:32;;;;;;;5.70;1.00;;;15.30;99.90;;;;;;5097988;27;20047;-67
2023/10/12 12:52:58;;;;;;;6.30;1.17;;;15.30;99.90;;;;;;5099409;27;20035;-67
2023/10/12 12:55:32;;;;;;;4.65;0.55;;;15.40;99.90;;;;;;5100862;27;20046;-67
2023/10/12 12:58:01;;;;;;;7.72;1.15;;;15.30;99.90;;;;;;5119017;27;20122;-67
2023/10/12 13:00:26;;;;;;;5.80;1.17;;;15.20;99.90;;;;;;5102004;27;20060;-67
2023/10/12 13:02:52;;;;;;;7.88;0.93;;;15.20;99.90;;;;;;5101998;27;20132;-67
2023/10/12 13:05:18;;;;;;;6.18;1.48;;;15.20;99.90;;;;;;5101226;28;20047;-67
2023/10/12 13:07:47;;;;;;;4.32;0.80;;;15.20;99.90;;;;;;5094754;28;20122;-67
2023/10/12 13:10:13;;;;;;;5.43;1.02;;;15.10;99.90;;;;;;5102670;28;20624;-67
2023/10/12 13:12:42;;;;;;;6.72;0.88;;;15.10;99.90;;;;;;5101899;27;20047;-67
2023/10/12 13:15:11;;;;;;;5.88;1.10;;;15.10;99.90;;;;;;5102648;28;20042;-67
2023/10/12 13:17:37;;;;;;;6.20;1.02;;;15.10;99.90;;;;;;5100090;28;20062;-67
2023/10/12 13:20:04;;;;;;;8.32;1.73;;;15.10;99.90;;;;;;5099507;27;20036;-67
2023/10/12 13:22:30;;;;;;;3.33;0.70;;;15.10;99.90;;;;;;5099761;27;20112;-67
2023/10/12 13:24:58;;;;;;;9.75;2.38;;;15.10;99.90;;;;;;5102240;27;20093;-67
2023/10/12 13:27:27;;;;;;;8.23;1.35;;;15.10;99.90;;;;;;5102213;27;20032;-67
2023/10/12 13:30:00;;;;;;;7.60;1.00;;;15.10;99.90;;;;;;5099780;27;20067;-67
2023/10/12 13:32:26;;;;;;;7.90;1.02;;;15.10;99.90;;;;;;5132417;27;20686;-67
2023/10/12 13:34:57;;;;;;;4.00;0.98;;;15.10;99.90;;;;;;5103214;27;20044;-67
2023/10/12 13:37:30;;;;;;;5.00;1.10;;;15.10;99.90;;;;;;5102406;27;20397;-67
2023/10/12 13:39:59;;;;;;;10.48;1.65;;;15.00;99.90;;;;;;5107536;27;20040;-67
2023/10/12 13:42:28;;;;;;;9.02;1.40;;;15.00;99.90;;;;;;5089153;27;20036;-67
2023/10/12 13:44:54;;;;;;;6.85;1.33;;;14.90;99.90;;;;;;5104647;27;20050;-67
2023/10/12 13:47:20;;;;;;;4.20;1.38;;;14.90;99.90;;;;;;5098825;27;20066;-67
2023/10/12 13:49:45;;;;;;;6.43;1.55;;;15.00;99.90;;;;;;5100504;28;20528;-67
2023/10/12 13:52:12;;;;;;;7.68;0.77;;;14.90;99.90;;;;;;5101275;27;20071;-67
2023/10/12 13:54:45;;;;;;;8.23;1.63;;;14.90;99.90;;;;;;5101036;28;20048;-67
2023/10/12 13:57:14;;;;;;;7.55;1.10;;;14.90;99.90;;;;;;5102576;28;20047;-67
2023/10/12 13:59:40;;;;;;;4.78;1.10;;;14.90;99.90;;;;;;5103067;28;20039;-67
2023/10/12 14:02:09;;;;;;;4.78;0.93;;;14.80;99.90;;;;;;5100151;28;20043;-67
2023/10/12 14:04:35;;;;;;;6.90;1.88;;;14.80;99.90;;;;;;5099807;28;20059;-67
2023/10/12 14:07:05;;;;;;;6.05;0.95;;;14.80;99.90;;;;;;5101783;27;20027;-67
2023/10/12 14:09:31;;;;;;;5.13;0.77;;;14.70;99.90;;;;;;5101358;27;20513;-67
2023/10/12 14:11:57;;;;;;;8.48;1.25;;;14.70;99.90;;;;;;5102338;27;20120;-67
2023/10/12 14:14:28;;;;;;;8.27;1.30;;;14.60;99.90;;;;;;5099320;28;20044;-67
2023/10/12 14:16:54;;;;;;;5.95;1.10;;;14.60;99.90;;;;;;5102807;27;20043;-67
2023/10/12 14:19:25;;;;;;;8.73;1.73;;;14.70;99.90;;;;;;5102115;27;20024;-67
2023/10/12 14:21:56;;;;;;;4.20;0.90;;;14.50;99.90;;;;;;5102692;27;20057;-68
2023/10/12 14:24:24;;;;;;;9.35;1.77;;;14.60;99.90;;;;;;5099839;28;20055;-68
2023/10/12 14:26:51;;;;;;;7.78;1.65;;;14.50;99.90;;;;;;5102100;28;20046;-68
2023/10/12 14:29:18;;;;;;;8.10;1.40;;;14.40;99.90;;;;;;5099458;27;20077;-68
2023/10/12 14:31:45;;;;;;;6.45;1.15;;;14.40;99.90;;;;;;5102822;27;20393;-68
2023/10/12 14:34:13;;;;;;;6.85;1.98;;;14.30;99.90;;;;;;5101630;27;20088;-68
2023/10/12 14:36:41;;;;;;;7.72;2.22;;;14.30;99.90;;;;;;5104447;27;20024;-69
2023/10/12 14:39:15;;;;;;;8.27;1.55;;;14.30;99.90;;;;;;5105391;27;20042;-68
2023/10/12 14:41:50;;;;;;;8.10;1.55;;;14.20;99.90;;;;;;5102369;27;20073;-68
2023/10/12 14:44:16;;;;;;;6.18;1.77;;;14.30;99.90;;;;;;5109136;27;20553;-68
2023/10/12 14:46:44;;;;;;;5.63;1.38;;;14.40;99.90;;;;;;5132996;27;20135;-68
2023/10/12 14:49:11;;;;;;;7.88;2.05;;;14.20;99.90;;;;;;5133836;27;20027;-68
2023/10/12 14:51:37;;;;;;;9.18;1.90;;;14.30;99.90;;;;;;5109906;27;20491;-68
2023/10/12 14:54:03;;;;;;;4.43;1.30;;;14.20;99.90;;;;;;5104845;27;20055;-67
2023/10/12 14:56:30;;;;;;;10.27;2.47;;;14.20;99.90;;;;;;5107093;27;20040;-67
2023/10/12 14:58:59;;;;;;;8.13;1.98;;;14.20;99.90;;;;;;5101483;28;20047;-67
2023/10/12 15:01:28;;;;;;;8.43;1.02;;;14.20;99.90;;;;;;5104542;28;20131;-68
2023/10/12 15:03:55;;;;;;;7.40;1.00;;;14.20;99.90;;;;;;5103616;28;20046;-68
2023/10/12 15:06:20;;;;;;;4.82;0.93;;;14.10;99.90;;;;;;5101055;27;20490;-68
2023/10/12 15:08:48;;;;;;;8.80;1.52;;;14.10;99.90;;;;;;5101036;28;20050;-68
2023/10/12 15:11:14;;;;;;;5.22;1.40;;;14.20;99.90;;;;;;5133722;27;20044;-68
2023/10/12 15:13:40;;;;;;;9.63;1.30;;;14.10;99.90;;;;;;5102849;28;20100;-68
2023/10/12 15:16:10;;;;;;;5.72;1.20;;;14.10;99.90;;;;;;5102425;28;20039;-68
2023/10/12 15:18:41;;;;;;;7.88;1.58;;;14.10;99.90;;;;;;5104308;28;20130;-68
2023/10/12 15:21:11;;;;;;;7.18;1.30;;;14.20;99.90;;;;;;5103324;28;20035;-68
2023/10/12 15:23:37;;;;;;;6.07;1.48;;;14.10;99.90;;;;;;5101068;28;20521;-68
2023/10/12 15:26:06;;;;;;;7.57;1.25;;;14.10;99.90;;;;;;5102337;28;20043;-68
2023/10/12 15:28:34;;;;;;;5.40;1.65;;;14.00;99.90;;;;;;5101440;28;20473;-68